Terminal Aerodrome Forecast
Issued by NWS

Home | Current Version | Previous Version | Text Only | Print | Product List | Glossary On
Versions: 1 2 3 4 5 6 7 8 9 10 11 12 13 14 15 16 17 18 19 20 21 22 23 24
000
FTUS41 KCAR 292320
TAFPQI
TAF
KPQI 292320Z 3000/3024 27005KT P6SM OVC030
     FM300200 27004KT P6SM BKN020
     FM300700 27005KT 2SM BR BKN010
     FM301000 27005KT P6SM BKN015
      AMD LTD TO CLD VIS AND WIND=

USA.gov is the U.S. government's official web portal to all federal, state and local government web resources and services.